Chester, UT (84623)

9:50 AM MST on January 31, 2015 (GMT -0700)
APRSWXNET Spring City UT US | Change Station
CLOSE
Current Station
Personal Weather Station
Location: Spring City, UT
Elevation: 5826 ft
Nearby Weather Stations

Elev 5826 ft 39.48 °N, 111.49 °W | Updated 31 minutes ago

Overcast
Overcast
37 °F
Feels Like 37 °F
N
1
Wind Variable Wind from WSW
Gusts 3.0 mph

Today
High -- | Low -- °F
--% Chance of Precip.
Yesterday
High -- | Low -- °F
Precip. -- in
7:34 AM 5:45 PM
Waxing Gibbous, 90% visible
Pressure 29.92 in
Visibility 10.0 miles
Clouds Scattered Clouds 100 ft
Windchill 37 °F
Dew Point 35 °F
Humidity 94%
Rainfall 0.00 in
Snow Depth Not available.
UV 1 out of 12
Pollen .10 out of 12
Air Quality Not available.
Flu Activity Not available.
SPECI KPUC 311615Z AUTO 00000KT 10SM SCT001 02/01 A2992 RMK AO2 T00220011

More Conditions Fewer Conditions

Pressure 29.92 in
Visibility 10.0 miles
Clouds Scattered Clouds 100 ft
Windchill 37 °F
Dew Point 35 °F
Humidity 94%
Rainfall 0.00 in
Snow Depth Not available.
UV 1 out of 12
Pollen .10 out of 12
Air Quality Not available.
Flu Activity Not available.
SPECI KPUC 311615Z AUTO 00000KT 10SM SCT001 02/01 A2992 RMK AO2 T00220011

More Conditions Fewer Conditions

10-Day Weather Forecast

Almanac

Astronomy

Jan. 31, 2015 Rise Set
Actual Time
Civil Twilight
Nautical Twilight
Astronomical Twilight
Moon
Length of Visible Light
Length of Day
Tomorrow will be .
, % of the Moon is Illuminated

Today's Extremes

State Highs State Lows

Community

WunderPhotos

Upload Photos

1,792,105 photos uploaded!

WunderBlogs® & News

Nearby

Air Quality

  Air Quality AQ Index Pollutant
Not available.

Snow Depth

Station Depth Elevation

Earthquake Activity

City Distance Mag. Time & Date
Minimum magnitude displayed is 2.5.

Coastal Water Temperatures

Place Temperature

Nearby Weather Stations